sensor_id;sensor_type;location;lat;lon;timestamp;temperature;humidity
2162;DHT22;1087;50.226;8.682;2022-11-20T00:00:40;5.50;99.90
2162;DHT22;1087;50.226;8.682;2022-11-20T00:03:05;5.50;99.90
2162;DHT22;1087;50.226;8.682;2022-11-20T00:05:32;5.50;99.90
2162;DHT22;1087;50.226;8.682;2022-11-20T00:07:58;5.50;99.90
2162;DHT22;1087;50.226;8.682;2022-11-20T00:10:24;5.50;99.90
2162;DHT22;1087;50.226;8.682;2022-11-20T00:12:49;5.40;99.90
2162;DHT22;1087;50.226;8.682;2022-11-20T00:15:15;5.40;99.90
2162;DHT22;1087;50.226;8.682;2022-11-20T00:17:40;5.30;99.90
2162;DHT22;1087;50.226;8.682;2022-11-20T00:20:06;5.20;99.90
2162;DHT22;1087;50.226;8.682;2022-11-20T00:22:31;5.20;99.90
2162;DHT22;1087;50.226;8.682;2022-11-20T00:24:57;5.30;99.90
2162;DHT22;1087;50.226;8.682;2022-11-20T00:27:23;5.30;99.90
2162;DHT22;1087;50.226;8.682;2022-11-20T00:29:49;5.20;99.90
2162;DHT22;1087;50.226;8.682;2022-11-20T00:32:14;5.20;99.90
2162;DHT22;1087;50.226;8.682;2022-11-20T00:34:40;5.20;99.90
2162;DHT22;1087;50.226;8.682;2022-11-20T00:37:05;5.30;99.90
2162;DHT22;1087;50.226;8.682;2022-11-20T00:39:31;5.20;99.90
2162;DHT22;1087;50.226;8.682;2022-11-20T00:41:56;5.30;99.90
2162;DHT22;1087;50.226;8.682;2022-11-20T00:44:22;5.00;99.90
2162;DHT22;1087;50.226;8.682;2022-11-20T00:46:47;5.00;99.90
2162;DHT22;1087;50.226;8.682;2022-11-20T00:49:13;5.10;99.90
2162;DHT22;1087;50.226;8.682;2022-11-20T00:51:38;5.10;99.90
2162;DHT22;1087;50.226;8.682;2022-11-20T00:54:04;5.20;99.90
2162;DHT22;1087;50.226;8.682;2022-11-20T00:56:29;5.20;99.90
2162;DHT22;1087;50.226;8.682;2022-11-20T00:58:55;5.30;99.90
2162;DHT22;1087;50.226;8.682;2022-11-20T01:01:25;5.40;99.90
2162;DHT22;1087;50.226;8.682;2022-11-20T01:03:53;5.30;99.90
2162;DHT22;1087;50.226;8.682;2022-11-20T01:06:24;5.30;99.90
2162;DHT22;1087;50.226;8.682;2022-11-20T01:08:52;5.30;99.90
2162;DHT22;1087;50.226;8.682;2022-11-20T01:11:20;5.20;99.90
2162;DHT22;1087;50.226;8.682;2022-11-20T01:13:47;5.20;99.90
2162;DHT22;1087;50.226;8.682;2022-11-20T01:16:15;5.20;99.90
2162;DHT22;1087;50.226;8.682;2022-11-20T01:18:44;5.20;99.90
2162;DHT22;1087;50.226;8.682;2022-11-20T01:21:12;5.20;99.90
2162;DHT22;1087;50.226;8.682;2022-11-20T01:23:39;5.20;99.90
2162;DHT22;1087;50.226;8.682;2022-11-20T01:26:07;5.20;99.90
2162;DHT22;1087;50.226;8.682;2022-11-20T01:28:34;5.20;99.90
2162;DHT22;1087;50.226;8.682;2022-11-20T01:31:01;5.20;99.90
2162;DHT22;1087;50.226;8.682;2022-11-20T01:33:27;5.20;99.90
2162;DHT22;1087;50.226;8.682;2022-11-20T01:35:53;5.10;99.90
2162;DHT22;1087;50.226;8.682;2022-11-20T01:38:27;5.10;99.90
2162;DHT22;1087;50.226;8.682;2022-11-20T01:40:56;5.10;99.90
2162;DHT22;1087;50.226;8.682;2022-11-20T01:43:22;5.10;99.90
2162;DHT22;1087;50.226;8.682;2022-11-20T01:46:02;5.10;99.90
2162;DHT22;1087;50.226;8.682;2022-11-20T01:48:51;5.00;99.90
2162;DHT22;1087;50.226;8.682;2022-11-20T01:51:29;5.10;99.90
2162;DHT22;1087;50.226;8.682;2022-11-20T01:54:05;5.10;99.90
2162;DHT22;1087;50.226;8.682;2022-11-20T01:56:38;5.00;99.90
2162;DHT22;1087;50.226;8.682;2022-11-20T01:59:07;4.70;99.90
2162;DHT22;1087;50.226;8.682;2022-11-20T02:01:34;4.70;99.90
2162;DHT22;1087;50.226;8.682;2022-11-20T02:04:00;4.80;99.90
2162;DHT22;1087;50.226;8.682;2022-11-20T02:06:29;4.90;99.90
2162;DHT22;1087;50.226;8.682;2022-11-20T02:08:55;4.90;99.90
2162;DHT22;1087;50.226;8.682;2022-11-20T02:11:21;4.90;99.90
2162;DHT22;1087;50.226;8.682;2022-11-20T02:13:47;4.90;99.90
2162;DHT22;1087;50.226;8.682;2022-11-20T02:18:45;4.90;99.90
2162;DHT22;1087;50.226;8.682;2022-11-20T02:24:03;4.90;99.90
2162;DHT22;1087;50.226;8.682;2022-11-20T02:26:31;4.90;99.90
2162;DHT22;1087;50.226;8.682;2022-11-20T02:28:58;4.90;99.90
2162;DHT22;1087;50.226;8.682;2022-11-20T02:31:24;4.80;99.90
2162;DHT22;1087;50.226;8.682;2022-11-20T02:33:57;4.90;99.90
2162;DHT22;1087;50.226;8.682;2022-11-20T02:36:25;4.90;99.90
2162;DHT22;1087;50.226;8.682;2022-11-20T02:38:51;5.00;99.90
2162;DHT22;1087;50.226;8.682;2022-11-20T02:41:17;5.00;99.90
2162;DHT22;1087;50.226;8.682;2022-11-20T02:43:43;5.00;99.90
2162;DHT22;1087;50.226;8.682;2022-11-20T02:46:08;4.90;99.90
2162;DHT22;1087;50.226;8.682;2022-11-20T02:48:34;4.80;99.90
2162;DHT22;1087;50.226;8.682;2022-11-20T02:51:00;4.80;99.90
2162;DHT22;1087;50.226;8.682;2022-11-20T02:53:26;4.80;99.90
2162;DHT22;1087;50.226;8.682;2022-11-20T02:55:51;4.80;99.90
2162;DHT22;1087;50.226;8.682;2022-11-20T02:58:17;4.80;99.90
2162;DHT22;1087;50.226;8.682;2022-11-20T03:00:43;4.80;99.90
2162;DHT22;1087;50.226;8.682;2022-11-20T03:03:08;4.70;99.90
2162;DHT22;1087;50.226;8.682;2022-11-20T03:05:34;4.80;99.90
2162;DHT22;1087;50.226;8.682;2022-11-20T03:07:59;4.80;99.90
2162;DHT22;1087;50.226;8.682;2022-11-20T03:10:25;4.80;99.90
2162;DHT22;1087;50.226;8.682;2022-11-20T03:12:54;4.80;99.90
2162;DHT22;1087;50.226;8.682;2022-11-20T03:15:21;4.80;99.90
2162;DHT22;1087;50.226;8.682;2022-11-20T03:17:47;4.80;99.90
2162;DHT22;1087;50.226;8.682;2022-11-20T03:20:12;4.80;99.90
2162;DHT22;1087;50.226;8.682;2022-11-20T03:22:38;4.80;99.90
2162;DHT22;1087;50.226;8.682;2022-11-20T03:25:04;4.80;99.90
2162;DHT22;1087;50.226;8.682;2022-11-20T03:27:33;4.70;99.90
2162;DHT22;1087;50.226;8.682;2022-11-20T03:29:59;4.70;99.90
2162;DHT22;1087;50.226;8.682;2022-11-20T03:32:25;4.70;99.90
2162;DHT22;1087;50.226;8.682;2022-11-20T03:34:50;4.70;99.90
2162;DHT22;1087;50.226;8.682;2022-11-20T03:37:16;4.70;99.90
2162;DHT22;1087;50.226;8.682;2022-11-20T03:39:41;4.70;99.90
2162;DHT22;1087;50.226;8.682;2022-11-20T03:42:07;4.80;99.90
2162;DHT22;1087;50.226;8.682;2022-11-20T03:44:53;4.70;99.90
2162;DHT22;1087;50.226;8.682;2022-11-20T03:47:18;4.80;99.90
2162;DHT22;1087;50.226;8.682;2022-11-20T03:49:44;4.80;99.90
2162;DHT22;1087;50.226;8.682;2022-11-20T03:52:09;4.80;99.90
2162;DHT22;1087;50.226;8.682;2022-11-20T03:54:35;4.80;99.90
2162;DHT22;1087;50.226;8.682;2022-11-20T03:57:00;4.80;99.90
2162;DHT22;1087;50.226;8.682;2022-11-20T03:59:26;4.70;99.90
2162;DHT22;1087;50.226;8.682;2022-11-20T04:01:51;4.80;99.90
2162;DHT22;1087;50.226;8.682;2022-11-20T04:04:17;4.80;99.90
2162;DHT22;1087;50.226;8.682;2022-11-20T04:06:42;4.80;99.90
2162;DHT22;1087;50.226;8.682;2022-11-20T04:09:08;4.90;99.90
2162;DHT22;1087;50.226;8.682;2022-11-20T04:11:35;4.70;99.90
2162;DHT22;1087;50.226;8.682;2022-11-20T04:14:04;4.80;99.90
2162;DHT22;1087;50.226;8.682;2022-11-20T04:16:32;4.80;99.90
2162;DHT22;1087;50.226;8.682;2022-11-20T04:19:00;4.70;99.90
2162;DHT22;1087;50.226;8.682;2022-11-20T04:21:26;4.70;99.90
2162;DHT22;1087;50.226;8.682;2022-11-20T04:23:52;4.80;99.90
2162;DHT22;1087;50.226;8.682;2022-11-20T04:26:19;4.90;99.90
2162;DHT22;1087;50.226;8.682;2022-11-20T04:28:45;4.80;99.90
2162;DHT22;1087;50.226;8.682;2022-11-20T04:31:14;4.80;99.90
2162;DHT22;1087;50.226;8.682;2022-11-20T04:33:40;4.80;99.90
2162;DHT22;1087;50.226;8.682;2022-11-20T04:38:33;4.80;99.90
2162;DHT22;1087;50.226;8.682;2022-11-20T04:41:01;4.90;99.90
2162;DHT22;1087;50.226;8.682;2022-11-20T04:43:26;4.90;99.90
2162;DHT22;1087;50.226;8.682;2022-11-20T04:45:56;4.80;99.90
2162;DHT22;1087;50.226;8.682;2022-11-20T04:48:23;4.80;99.90
2162;DHT22;1087;50.226;8.682;2022-11-20T04:50:49;4.80;99.90
2162;DHT22;1087;50.226;8.682;2022-11-20T04:53:14;4.90;99.90
2162;DHT22;1087;50.226;8.682;2022-11-20T04:55:40;4.80;99.90
2162;DHT22;1087;50.226;8.682;2022-11-20T04:58:05;4.90;99.90
2162;DHT22;1087;50.226;8.682;2022-11-20T05:00:31;4.90;99.90
2162;DHT22;1087;50.226;8.682;2022-11-20T05:02:57;4.90;99.90
2162;DHT22;1087;50.226;8.682;2022-11-20T05:05:22;4.70;99.90
2162;DHT22;1087;50.226;8.682;2022-11-20T05:07:48;4.60;99.90
2162;DHT22;1087;50.226;8.682;2022-11-20T05:10:13;4.70;99.90
2162;DHT22;1087;50.226;8.682;2022-11-20T05:12:39;4.70;99.90
2162;DHT22;1087;50.226;8.682;2022-11-20T05:15:05;4.70;99.90
2162;DHT22;1087;50.226;8.682;2022-11-20T05:17:30;4.80;99.90
2162;DHT22;1087;50.226;8.682;2022-11-20T05:19:56;4.80;99.90
2162;DHT22;1087;50.226;8.682;2022-11-20T05:22:21;4.80;99.90
2162;DHT22;1087;50.226;8.682;2022-11-20T05:24:47;4.80;99.90
2162;DHT22;1087;50.226;8.682;2022-11-20T05:27:12;4.80;99.90
2162;DHT22;1087;50.226;8.682;2022-11-20T05:29:38;4.70;99.90
2162;DHT22;1087;50.226;8.682;2022-11-20T05:32:04;4.70;99.90
2162;DHT22;1087;50.226;8.682;2022-11-20T05:34:31;4.70;99.90
2162;DHT22;1087;50.226;8.682;2022-11-20T05:36:56;4.70;99.90
2162;DHT22;1087;50.226;8.682;2022-11-20T05:39:22;4.70;99.90
2162;DHT22;1087;50.226;8.682;2022-11-20T05:41:47;4.90;99.90
2162;DHT22;1087;50.226;8.682;2022-11-20T05:44:33;4.80;99.90
2162;DHT22;1087;50.226;8.682;2022-11-20T05:46:58;4.80;99.90
2162;DHT22;1087;50.226;8.682;2022-11-20T05:49:24;4.90;99.90
2162;DHT22;1087;50.226;8.682;2022-11-20T05:51:49;4.90;99.90
2162;DHT22;1087;50.226;8.682;2022-11-20T05:54:15;5.00;99.90
2162;DHT22;1087;50.226;8.682;2022-11-20T05:56:40;5.00;99.90
2162;DHT22;1087;50.226;8.682;2022-11-20T05:59:06;4.90;99.90
2162;DHT22;1087;50.226;8.682;2022-11-20T06:01:31;4.80;99.90
2162;DHT22;1087;50.226;8.682;2022-11-20T06:03:57;4.80;99.90
2162;DHT22;1087;50.226;8.682;2022-11-20T06:06:22;4.80;99.90
2162;DHT22;1087;50.226;8.682;2022-11-20T06:08:48;4.80;99.90
2162;DHT22;1087;50.226;8.682;2022-11-20T06:11:14;4.80;99.90
2162;DHT22;1087;50.226;8.682;2022-11-20T06:13:40;4.80;99.90
2162;DHT22;1087;50.226;8.682;2022-11-20T06:16:06;4.80;99.90
2162;DHT22;1087;50.226;8.682;2022-11-20T06:18:32;4.90;99.90
2162;DHT22;1087;50.226;8.682;2022-11-20T06:21:06;4.90;99.90
2162;DHT22;1087;50.226;8.682;2022-11-20T06:23:33;4.90;99.90
2162;DHT22;1087;50.226;8.682;2022-11-20T06:26:07;4.90;99.90
2162;DHT22;1087;50.226;8.682;2022-11-20T06:28:33;4.90;99.90
2162;DHT22;1087;50.226;8.682;2022-11-20T06:30:59;4.90;99.90
2162;DHT22;1087;50.226;8.682;2022-11-20T06:33:24;4.90;99.90
2162;DHT22;1087;50.226;8.682;2022-11-20T06:35:50;4.90;99.90
2162;DHT22;1087;50.226;8.682;2022-11-20T06:38:16;4.90;99.90
2162;DHT22;1087;50.226;8.682;2022-11-20T06:40:41;4.90;99.90
2162;DHT22;1087;50.226;8.682;2022-11-20T06:43:10;4.90;99.90
2162;DHT22;1087;50.226;8.682;2022-11-20T06:45:36;4.90;99.90
2162;DHT22;1087;50.226;8.682;2022-11-20T06:48:02;4.90;99.90
2162;DHT22;1087;50.226;8.682;2022-11-20T06:50:28;4.90;99.90
2162;DHT22;1087;50.226;8.682;2022-11-20T06:52:54;5.00;99.90
2162;DHT22;1087;50.226;8.682;2022-11-20T06:55:19;4.90;99.90
2162;DHT22;1087;50.226;8.682;2022-11-20T06:57:45;4.90;99.90
2162;DHT22;1087;50.226;8.682;2022-11-20T07:00:13;4.80;99.90
2162;DHT22;1087;50.226;8.682;2022-11-20T07:02:38;4.80;99.90
2162;DHT22;1087;50.226;8.682;2022-11-20T07:05:04;4.80;99.90
2162;DHT22;1087;50.226;8.682;2022-11-20T07:07:30;4.80;99.90
2162;DHT22;1087;50.226;8.682;2022-11-20T07:09:55;4.80;99.90
2162;DHT22;1087;50.226;8.682;2022-11-20T07:12:21;4.80;99.90
2162;DHT22;1087;50.226;8.682;2022-11-20T07:14:46;4.80;99.90
2162;DHT22;1087;50.226;8.682;2022-11-20T07:17:12;4.70;99.90
2162;DHT22;1087;50.226;8.682;2022-11-20T07:19:38;4.80;99.90
2162;DHT22;1087;50.226;8.682;2022-11-20T07:22:04;4.90;99.90
2162;DHT22;1087;50.226;8.682;2022-11-20T07:24:29;4.80;99.90
2162;DHT22;1087;50.226;8.682;2022-11-20T07:26:55;4.80;99.90
2162;DHT22;1087;50.226;8.682;2022-11-20T07:29:20;4.70;99.90
2162;DHT22;1087;50.226;8.682;2022-11-20T07:31:46;4.70;99.90
2162;DHT22;1087;50.226;8.682;2022-11-20T07:34:11;4.60;99.90
2162;DHT22;1087;50.226;8.682;2022-11-20T07:36:37;4.60;99.90
2162;DHT22;1087;50.226;8.682;2022-11-20T07:39:02;4.60;99.90
2162;DHT22;1087;50.226;8.682;2022-11-20T07:41:28;4.70;99.90
2162;DHT22;1087;50.226;8.682;2022-11-20T07:43:54;4.70;99.90
2162;DHT22;1087;50.226;8.682;2022-11-20T07:46:19;4.60;99.90
2162;DHT22;1087;50.226;8.682;2022-11-20T07:48:45;4.60;99.90
2162;DHT22;1087;50.226;8.682;2022-11-20T07:51:10;4.50;99.90
2162;DHT22;1087;50.226;8.682;2022-11-20T07:53:36;4.60;99.90
2162;DHT22;1087;50.226;8.682;2022-11-20T07:56:02;4.60;99.90
2162;DHT22;1087;50.226;8.682;2022-11-20T07:58:31;4.70;99.90
2162;DHT22;1087;50.226;8.682;2022-11-20T08:01:02;4.60;99.90
2162;DHT22;1087;50.226;8.682;2022-11-20T08:03:28;4.70;99.90
2162;DHT22;1087;50.226;8.682;2022-11-20T08:05:54;4.70;99.90
2162;DHT22;1087;50.226;8.682;2022-11-20T08:08:19;4.70;99.90
2162;DHT22;1087;50.226;8.682;2022-11-20T08:10:45;4.60;99.90
2162;DHT22;1087;50.226;8.682;2022-11-20T08:13:11;4.70;99.90
2162;DHT22;1087;50.226;8.682;2022-11-20T08:15:55;4.80;99.90
2162;DHT22;1087;50.226;8.682;2022-11-20T08:18:20;4.70;99.90
2162;DHT22;1087;50.226;8.682;2022-11-20T08:20:46;4.80;99.90
2162;DHT22;1087;50.226;8.682;2022-11-20T08:23:11;4.80;99.90
2162;DHT22;1087;50.226;8.682;2022-11-20T08:25:37;4.90;99.90
2162;DHT22;1087;50.226;8.682;2022-11-20T08:28:08;4.90;99.90
2162;DHT22;1087;50.226;8.682;2022-11-20T08:30:36;5.00;99.90
2162;DHT22;1087;50.226;8.682;2022-11-20T08:33:04;5.00;99.90
2162;DHT22;1087;50.226;8.682;2022-11-20T08:35:33;5.10;99.90
2162;DHT22;1087;50.226;8.682;2022-11-20T08:38:00;5.10;99.90
2162;DHT22;1087;50.226;8.682;2022-11-20T08:40:25;5.10;99.90
2162;DHT22;1087;50.226;8.682;2022-11-20T08:42:51;5.00;99.90
2162;DHT22;1087;50.226;8.682;2022-11-20T08:45:18;5.00;99.90
2162;DHT22;1087;50.226;8.682;2022-11-20T08:47:44;5.00;99.90
2162;DHT22;1087;50.226;8.682;2022-11-20T08:50:11;5.10;99.90
2162;DHT22;1087;50.226;8.682;2022-11-20T08:52:37;5.10;99.90
2162;DHT22;1087;50.226;8.682;2022-11-20T08:55:04;5.10;99.90
2162;DHT22;1087;50.226;8.682;2022-11-20T08:57:34;5.10;99.90
2162;DHT22;1087;50.226;8.682;2022-11-20T08:59:59;5.10;99.90
2162;DHT22;1087;50.226;8.682;2022-11-20T09:02:25;5.20;99.90
2162;DHT22;1087;50.226;8.682;2022-11-20T09:04:51;5.20;99.90
2162;DHT22;1087;50.226;8.682;2022-11-20T09:07:16;5.30;99.90
2162;DHT22;1087;50.226;8.682;2022-11-20T09:09:42;5.30;99.90
2162;DHT22;1087;50.226;8.682;2022-11-20T09:12:07;5.30;99.90
2162;DHT22;1087;50.226;8.682;2022-11-20T09:14:33;5.10;99.90
2162;DHT22;1087;50.226;8.682;2022-11-20T09:16:59;5.20;99.90
2162;DHT22;1087;50.226;8.682;2022-11-20T09:19:24;5.30;99.90
2162;DHT22;1087;50.226;8.682;2022-11-20T09:21:50;5.40;99.90
2162;DHT22;1087;50.226;8.682;2022-11-20T09:24:16;5.30;99.90
2162;DHT22;1087;50.226;8.682;2022-11-20T09:26:41;5.40;99.90
2162;DHT22;1087;50.226;8.682;2022-11-20T09:29:07;5.50;99.90
2162;DHT22;1087;50.226;8.682;2022-11-20T09:31:32;5.60;99.90
2162;DHT22;1087;50.226;8.682;2022-11-20T09:33:58;5.50;99.90
2162;DHT22;1087;50.226;8.682;2022-11-20T09:36:23;5.60;99.90
2162;DHT22;1087;50.226;8.682;2022-11-20T09:38:49;5.50;99.90
2162;DHT22;1087;50.226;8.682;2022-11-20T09:44:53;5.30;99.90
2162;DHT22;1087;50.226;8.682;2022-11-20T09:47:30;5.40;99.90
2162;DHT22;1087;50.226;8.682;2022-11-20T09:52:56;5.60;99.90
2162;DHT22;1087;50.226;8.682;2022-11-20T09:55:24;5.60;99.90
2162;DHT22;1087;50.226;8.682;2022-11-20T09:57:52;5.60;99.90
2162;DHT22;1087;50.226;8.682;2022-11-20T10:00:18;5.60;99.90
2162;DHT22;1087;50.226;8.682;2022-11-20T10:03:14;5.40;99.90
2162;DHT22;1087;50.226;8.682;2022-11-20T10:05:47;5.60;99.90
2162;DHT22;1087;50.226;8.682;2022-11-20T10:08:41;5.50;99.90
2162;DHT22;1087;50.226;8.682;2022-11-20T10:11:17;5.70;99.90
2162;DHT22;1087;50.226;8.682;2022-11-20T10:14:08;5.70;99.90
2162;DHT22;1087;50.226;8.682;2022-11-20T10:17:03;5.70;99.90
2162;DHT22;1087;50.226;8.682;2022-11-20T10:22:30;5.80;99.90
2162;DHT22;1087;50.226;8.682;2022-11-20T10:25:14;5.90;99.90
2162;DHT22;1087;50.226;8.682;2022-11-20T10:30:14;6.00;99.90
2162;DHT22;1087;50.226;8.682;2022-11-20T10:32:43;6.00;99.90
2162;DHT22;1087;50.226;8.682;2022-11-20T10:35:26;5.80;99.90
2162;DHT22;1087;50.226;8.682;2022-11-20T10:37:57;5.80;99.90
2162;DHT22;1087;50.226;8.682;2022-11-20T10:40:34;5.80;99.90
2162;DHT22;1087;50.226;8.682;2022-11-20T10:43:04;5.80;99.90
2162;DHT22;1087;50.226;8.682;2022-11-20T10:45:47;5.90;99.90
2162;DHT22;1087;50.226;8.682;2022-11-20T10:48:27;5.80;99.90
2162;DHT22;1087;50.226;8.682;2022-11-20T10:56:46;6.00;99.90
2162;DHT22;1087;50.226;8.682;2022-11-20T11:01:59;6.10;99.90
2162;DHT22;1087;50.226;8.682;2022-11-20T11:04:43;6.10;99.90
2162;DHT22;1087;50.226;8.682;2022-11-20T11:07:18;6.20;99.90
2162;DHT22;1087;50.226;8.682;2022-11-20T11:09:55;6.20;99.90
2162;DHT22;1087;50.226;8.682;2022-11-20T11:12:26;6.10;99.90
2162;DHT22;1087;50.226;8.682;2022-11-20T11:14:56;6.10;99.90
2162;DHT22;1087;50.226;8.682;2022-11-20T11:17:26;6.20;99.90
2162;DHT22;1087;50.226;8.682;2022-11-20T11:22:32;6.20;99.90
2162;DHT22;1087;50.226;8.682;2022-11-20T11:24:58;6.20;99.90
2162;DHT22;1087;50.226;8.682;2022-11-20T11:27:24;6.30;99.90
2162;DHT22;1087;50.226;8.682;2022-11-20T11:29:50;6.30;99.90
2162;DHT22;1087;50.226;8.682;2022-11-20T11:32:26;6.30;99.90
2162;DHT22;1087;50.226;8.682;2022-11-20T11:35:00;6.40;99.90
2162;DHT22;1087;50.226;8.682;2022-11-20T11:37:35;6.30;99.90
2162;DHT22;1087;50.226;8.682;2022-11-20T11:40:02;6.40;99.90
2162;DHT22;1087;50.226;8.682;2022-11-20T11:42:28;6.40;99.90
2162;DHT22;1087;50.226;8.682;2022-11-20T11:44:57;6.50;99.90
2162;DHT22;1087;50.226;8.682;2022-11-20T11:47:36;6.50;99.90
2162;DHT22;1087;50.226;8.682;2022-11-20T11:53:12;6.30;99.90
2162;DHT22;1087;50.226;8.682;2022-11-20T12:03:38;6.50;99.90
2162;DHT22;1087;50.226;8.682;2022-11-20T12:06:14;6.50;99.90
2162;DHT22;1087;50.226;8.682;2022-11-20T12:08:53;6.50;99.90
2162;DHT22;1087;50.226;8.682;2022-11-20T12:11:33;6.50;99.90
2162;DHT22;1087;50.226;8.682;2022-11-20T12:14:17;6.40;99.90
2162;DHT22;1087;50.226;8.682;2022-11-20T12:16:50;6.30;99.90
2162;DHT22;1087;50.226;8.682;2022-11-20T12:19:16;6.40;99.90
2162;DHT22;1087;50.226;8.682;2022-11-20T12:25:11;6.60;99.90
2162;DHT22;1087;50.226;8.682;2022-11-20T12:30:19;6.40;99.90
2162;DHT22;1087;50.226;8.682;2022-11-20T12:33:16;6.60;99.90
2162;DHT22;1087;50.226;8.682;2022-11-20T12:41:34;6.40;99.90
2162;DHT22;1087;50.226;8.682;2022-11-20T12:45:01;6.50;99.90
2162;DHT22;1087;50.226;8.682;2022-11-20T12:50:14;6.50;99.90
2162;DHT22;1087;50.226;8.682;2022-11-20T12:52:48;6.60;99.90
2162;DHT22;1087;50.226;8.682;2022-11-20T12:55:36;6.30;99.90
2162;DHT22;1087;50.226;8.682;2022-11-20T13:01:04;6.40;99.90
2162;DHT22;1087;50.226;8.682;2022-11-20T13:03:44;6.40;99.90
2162;DHT22;1087;50.226;8.682;2022-11-20T13:06:18;6.30;99.90
2162;DHT22;1087;50.226;8.682;2022-11-20T13:08:49;6.30;99.90
2162;DHT22;1087;50.226;8.682;2022-11-20T13:11:40;6.40;99.90
2162;DHT22;1087;50.226;8.682;2022-11-20T13:14:26;6.40;99.90
2162;DHT22;1087;50.226;8.682;2022-11-20T13:17:48;6.40;99.90
2162;DHT22;1087;50.226;8.682;2022-11-20T13:19:55;6.40;99.90
2162;DHT22;1087;50.226;8.682;2022-11-20T13:22:28;6.40;99.90
2162;DHT22;1087;50.226;8.682;2022-11-20T13:24:54;6.50;99.90
2162;DHT22;1087;50.226;8.682;2022-11-20T13:27:23;6.50;99.90
2162;DHT22;1087;50.226;8.682;2022-11-20T13:30:12;6.50;99.90
2162;DHT22;1087;50.226;8.682;2022-11-20T13:32:54;6.40;99.90
2162;DHT22;1087;50.226;8.682;2022-11-20T13:38:04;6.40;99.90
2162;DHT22;1087;50.226;8.682;2022-11-20T13:40:30;6.40;99.90
2162;DHT22;1087;50.226;8.682;2022-11-20T13:43:19;6.50;99.90
2162;DHT22;1087;50.226;8.682;2022-11-20T13:46:02;6.30;99.90
2162;DHT22;1087;50.226;8.682;2022-11-20T13:48:48;6.20;99.90
2162;DHT22;1087;50.226;8.682;2022-11-20T13:51:26;6.30;99.90
2162;DHT22;1087;50.226;8.682;2022-11-20T13:54:19;6.30;99.90
2162;DHT22;1087;50.226;8.682;2022-11-20T13:57:10;6.50;99.90
2162;DHT22;1087;50.226;8.682;2022-11-20T14:02:14;6.50;99.90
2162;DHT22;1087;50.226;8.682;2022-11-20T14:04:47;6.50;99.90
2162;DHT22;1087;50.226;8.682;2022-11-20T14:07:14;6.40;99.90
2162;DHT22;1087;50.226;8.682;2022-11-20T14:09:50;6.30;99.90
2162;DHT22;1087;50.226;8.682;2022-11-20T14:12:18;6.30;99.90
2162;DHT22;1087;50.226;8.682;2022-11-20T14:14:49;6.40;99.90
2162;DHT22;1087;50.226;8.682;2022-11-20T14:17:34;6.30;99.90
2162;DHT22;1087;50.226;8.682;2022-11-20T14:20:06;6.40;99.90
2162;DHT22;1087;50.226;8.682;2022-11-20T14:22:33;6.40;99.90
2162;DHT22;1087;50.226;8.682;2022-11-20T14:27:40;6.50;99.90
2162;DHT22;1087;50.226;8.682;2022-11-20T14:30:18;6.50;99.90
2162;DHT22;1087;50.226;8.682;2022-11-20T14:32:45;6.50;99.90
2162;DHT22;1087;50.226;8.682;2022-11-20T14:35:24;6.50;99.90
2162;DHT22;1087;50.226;8.682;2022-11-20T14:37:51;6.60;99.90
2162;DHT22;1087;50.226;8.682;2022-11-20T14:40:32;6.60;99.90
2162;DHT22;1087;50.226;8.682;2022-11-20T14:43:01;6.60;99.90
2162;DHT22;1087;50.226;8.682;2022-11-20T14:45:27;6.70;99.90
2162;DHT22;1087;50.226;8.682;2022-11-20T14:47:55;6.60;99.90
2162;DHT22;1087;50.226;8.682;2022-11-20T14:50:27;6.60;99.90
2162;DHT22;1087;50.226;8.682;2022-11-20T14:53:00;6.60;99.90
2162;DHT22;1087;50.226;8.682;2022-11-20T14:55:34;6.60;99.90
2162;DHT22;1087;50.226;8.682;2022-11-20T14:58:03;6.40;99.90
2162;DHT22;1087;50.226;8.682;2022-11-20T15:00:30;6.50;99.90
2162;DHT22;1087;50.226;8.682;2022-11-20T15:02:56;6.60;99.90
2162;DHT22;1087;50.226;8.682;2022-11-20T15:08:09;6.50;99.90
2162;DHT22;1087;50.226;8.682;2022-11-20T15:10:36;6.60;99.90
2162;DHT22;1087;50.226;8.682;2022-11-20T15:13:10;6.60;99.90
2162;DHT22;1087;50.226;8.682;2022-11-20T15:15:45;6.60;99.90
2162;DHT22;1087;50.226;8.682;2022-11-20T15:18:20;6.60;99.90
2162;DHT22;1087;50.226;8.682;2022-11-20T15:20:47;6.60;99.90
2162;DHT22;1087;50.226;8.682;2022-11-20T15:23:15;6.70;99.90
2162;DHT22;1087;50.226;8.682;2022-11-20T15:25:41;6.70;99.90
2162;DHT22;1087;50.226;8.682;2022-11-20T15:28:19;6.60;99.90
2162;DHT22;1087;50.226;8.682;2022-11-20T15:30:47;6.70;99.90
2162;DHT22;1087;50.226;8.682;2022-11-20T15:33:13;6.60;99.90
2162;DHT22;1087;50.226;8.682;2022-11-20T15:35:39;6.50;99.90
2162;DHT22;1087;50.226;8.682;2022-11-20T15:38:05;6.70;99.90
2162;DHT22;1087;50.226;8.682;2022-11-20T15:40:31;6.70;99.90
2162;DHT22;1087;50.226;8.682;2022-11-20T15:42:57;6.70;99.90
2162;DHT22;1087;50.226;8.682;2022-11-20T15:45:50;6.70;99.90
2162;DHT22;1087;50.226;8.682;2022-11-20T15:48:21;6.80;99.90
2162;DHT22;1087;50.226;8.682;2022-11-20T15:50:56;6.80;99.90
2162;DHT22;1087;50.226;8.682;2022-11-20T15:53:22;6.80;99.90
2162;DHT22;1087;50.226;8.682;2022-11-20T15:55:48;6.90;99.90
2162;DHT22;1087;50.226;8.682;2022-11-20T15:58:14;6.80;99.90
2162;DHT22;1087;50.226;8.682;2022-11-20T16:00:39;6.70;99.90
2162;DHT22;1087;50.226;8.682;2022-11-20T16:03:05;6.70;99.90
2162;DHT22;1087;50.226;8.682;2022-11-20T16:05:31;6.80;99.90
2162;DHT22;1087;50.226;8.682;2022-11-20T16:07:56;6.80;99.90
2162;DHT22;1087;50.226;8.682;2022-11-20T16:10:23;6.90;99.90
2162;DHT22;1087;50.226;8.682;2022-11-20T16:12:48;6.90;99.90
2162;DHT22;1087;50.226;8.682;2022-11-20T16:15:32;6.90;99.90
2162;DHT22;1087;50.226;8.682;2022-11-20T16:18:12;6.90;99.90
2162;DHT22;1087;50.226;8.682;2022-11-20T16:20:38;6.90;99.90
2162;DHT22;1087;50.226;8.682;2022-11-20T16:23:05;7.00;99.90
2162;DHT22;1087;50.226;8.682;2022-11-20T16:25:31;7.00;99.90
2162;DHT22;1087;50.226;8.682;2022-11-20T16:27:56;7.00;99.90
2162;DHT22;1087;50.226;8.682;2022-11-20T16:30:22;6.90;99.90
2162;DHT22;1087;50.226;8.682;2022-11-20T16:32:47;7.00;99.90
2162;DHT22;1087;50.226;8.682;2022-11-20T16:35:13;7.00;99.90
2162;DHT22;1087;50.226;8.682;2022-11-20T16:37:39;7.10;99.90
2162;DHT22;1087;50.226;8.682;2022-11-20T16:40:05;7.00;99.90
2162;DHT22;1087;50.226;8.682;2022-11-20T16:42:34;7.00;99.90
2162;DHT22;1087;50.226;8.682;2022-11-20T16:45:00;7.10;99.90
2162;DHT22;1087;50.226;8.682;2022-11-20T16:47:25;7.10;99.90
2162;DHT22;1087;50.226;8.682;2022-11-20T16:49:51;7.10;99.90
2162;DHT22;1087;50.226;8.682;2022-11-20T16:52:16;7.10;99.90
2162;DHT22;1087;50.226;8.682;2022-11-20T16:54:42;7.10;99.90
2162;DHT22;1087;50.226;8.682;2022-11-20T16:57:07;7.10;99.90
2162;DHT22;1087;50.226;8.682;2022-11-20T16:59:33;7.10;99.90
2162;DHT22;1087;50.226;8.682;2022-11-20T17:01:59;7.20;99.90
2162;DHT22;1087;50.226;8.682;2022-11-20T17:04:24;7.10;99.90
2162;DHT22;1087;50.226;8.682;2022-11-20T17:06:50;7.10;99.90
2162;DHT22;1087;50.226;8.682;2022-11-20T17:09:15;7.00;99.90
2162;DHT22;1087;50.226;8.682;2022-11-20T17:11:41;7.00;99.90
2162;DHT22;1087;50.226;8.682;2022-11-20T17:14:07;7.10;99.90
2162;DHT22;1087;50.226;8.682;2022-11-20T17:16:34;7.20;99.90
2162;DHT22;1087;50.226;8.682;2022-11-20T17:19:00;7.20;99.90
2162;DHT22;1087;50.226;8.682;2022-11-20T17:21:26;7.20;99.90
2162;DHT22;1087;50.226;8.682;2022-11-20T17:23:51;7.20;99.90
2162;DHT22;1087;50.226;8.682;2022-11-20T17:26:19;7.10;99.90
2162;DHT22;1087;50.226;8.682;2022-11-20T17:28:54;7.20;99.90
2162;DHT22;1087;50.226;8.682;2022-11-20T17:31:19;7.30;99.90
2162;DHT22;1087;50.226;8.682;2022-11-20T17:33:45;7.30;99.90
2162;DHT22;1087;50.226;8.682;2022-11-20T17:36:13;7.30;99.90
2162;DHT22;1087;50.226;8.682;2022-11-20T17:38:39;7.30;99.90